createdAt,value
2023-02-02T00:01:51.311Z,93.44
2023-02-02T00:04:28.138Z,93.18
2023-02-02T00:06:59.467Z,92.88
2023-02-02T00:09:29.599Z,92.84
2023-02-02T00:11:59.262Z,92.74
2023-02-02T00:14:27.683Z,92.65
2023-02-02T00:16:57.503Z,92.70
2023-02-02T00:19:30.393Z,92.50
2023-02-02T00:21:58.422Z,92.35
2023-02-02T00:24:26.956Z,92.21
2023-02-02T00:26:57.218Z,92.05
2023-02-02T00:29:30.962Z,91.93
2023-02-02T00:31:58.964Z,91.79
2023-02-02T00:34:27.044Z,91.88
2023-02-02T00:36:55.007Z,91.68
2023-02-02T00:39:27.899Z,91.70
2023-02-02T00:41:56.067Z,91.69
2023-02-02T00:44:42.775Z,91.77
2023-02-02T00:47:11.141Z,91.97
2023-02-02T00:49:39.447Z,92.05
2023-02-02T00:52:07.475Z,92.03
2023-02-02T00:54:35.522Z,91.91
2023-02-02T00:57:04.493Z,92.28
2023-02-02T00:59:33.051Z,92.32
2023-02-02T01:02:02.058Z,92.35
2023-02-02T01:04:30.519Z,92.39
2023-02-02T01:06:58.742Z,92.58
2023-02-02T01:09:26.958Z,92.67
2023-02-02T01:11:55.350Z,92.72
2023-02-02T01:14:23.422Z,92.55
2023-02-02T01:16:51.431Z,92.61
2023-02-02T01:19:19.934Z,92.86
2023-02-02T01:21:48.019Z,92.75
2023-02-02T01:24:16.043Z,92.65
2023-02-02T01:26:44.111Z,92.69
2023-02-02T01:29:12.405Z,92.50
2023-02-02T01:31:40.767Z,92.37
2023-02-02T01:34:09.193Z,92.31
2023-02-02T01:36:38.353Z,92.24
2023-02-02T01:39:06.294Z,92.30
2023-02-02T01:41:34.658Z,92.34
2023-02-02T01:44:05.624Z,92.30
2023-02-02T01:46:36.056Z,92.27
2023-02-02T01:49:18.009Z,92.11
2023-02-02T01:51:53.789Z,92.12
2023-02-02T01:54:36.027Z,92.14
2023-02-02T01:57:09.668Z,92.13
2023-02-02T01:59:38.747Z,92.11
2023-02-02T02:02:07.605Z,92.13
2023-02-02T02:04:35.737Z,92.16
2023-02-02T02:07:05.798Z,92.20
2023-02-02T02:09:34.859Z,92.28
2023-02-02T02:12:03.409Z,92.36
2023-02-02T02:14:50.063Z,92.18
2023-02-02T02:17:20.937Z,92.17
2023-02-02T02:20:10.877Z,92.30
2023-02-02T02:23:28.603Z,92.28
2023-02-02T02:26:33.816Z,92.38
2023-02-02T02:29:39.489Z,92.41
2023-02-02T02:32:19.212Z,92.51
2023-02-02T02:35:12.152Z,92.53
2023-02-02T02:38:19.896Z,92.50
2023-02-02T02:40:55.886Z,92.52
2023-02-02T02:43:29.502Z,92.52
2023-02-02T02:45:58.035Z,92.41
2023-02-02T02:48:26.375Z,92.62
2023-02-02T02:50:54.395Z,92.81
2023-02-02T02:53:23.819Z,92.80
2023-02-02T02:56:05.372Z,92.84
2023-02-02T02:58:49.973Z,92.99
2023-02-02T03:02:33.011Z,92.95
2023-02-02T03:05:07.440Z,92.70
2023-02-02T03:07:42.516Z,92.65
2023-02-02T03:10:15.403Z,92.83
2023-02-02T03:12:48.561Z,92.66
2023-02-02T03:15:17.951Z,92.62
2023-02-02T03:17:49.257Z,92.59
2023-02-02T03:20:18.188Z,92.23
2023-02-02T03:22:46.326Z,92.15
2023-02-02T03:25:16.006Z,92.10
2023-02-02T03:27:44.389Z,92.15
2023-02-02T03:30:13.931Z,92.26
2023-02-02T03:32:42.397Z,92.18
2023-02-02T03:35:10.576Z,92.04
2023-02-02T03:37:38.916Z,91.50
2023-02-02T03:40:07.602Z,91.68
2023-02-02T03:42:35.605Z,91.85
2023-02-02T03:45:04.725Z,91.66
2023-02-02T03:47:33.387Z,91.40
2023-02-02T03:50:01.325Z,91.34
2023-02-02T03:52:29.340Z,91.64
2023-02-02T03:54:57.268Z,91.23
2023-02-02T03:57:25.160Z,90.66
2023-02-02T03:59:53.130Z,90.51
2023-02-02T04:02:21.206Z,90.71
2023-02-02T04:04:49.645Z,90.78
2023-02-02T04:07:17.679Z,90.81
2023-02-02T04:09:45.669Z,90.55
2023-02-02T04:12:13.726Z,90.53
2023-02-02T04:14:41.773Z,90.55
2023-02-02T04:17:09.803Z,90.58
2023-02-02T04:19:37.676Z,90.75
2023-02-02T04:22:05.657Z,90.81
2023-02-02T04:24:33.571Z,91.02
2023-02-02T04:27:01.575Z,91.21
2023-02-02T04:29:29.878Z,91.51
2023-02-02T04:31:58.010Z,91.58
2023-02-02T04:34:25.964Z,91.70
2023-02-02T04:36:53.921Z,91.69
2023-02-02T04:39:21.978Z,91.78
2023-02-02T04:41:50.038Z,91.87
2023-02-02T04:44:18.039Z,91.91
2023-02-02T04:46:46.021Z,92.07
2023-02-02T04:49:13.976Z,92.47
2023-02-02T04:51:42.079Z,92.51
2023-02-02T04:54:10.160Z,92.40
2023-02-02T04:56:38.138Z,92.62
2023-02-02T04:59:06.162Z,92.83
2023-02-02T05:01:34.197Z,92.70
2023-02-02T05:04:02.261Z,92.88
2023-02-02T05:06:30.301Z,92.82
2023-02-02T05:08:58.306Z,92.77
2023-02-02T05:11:26.337Z,92.82
2023-02-02T05:13:55.241Z,92.94
2023-02-02T05:16:23.903Z,93.36
2023-02-02T05:18:57.001Z,94.10
2023-02-02T05:21:25.364Z,94.41
2023-02-02T05:23:53.356Z,94.64
2023-02-02T05:26:24.987Z,94.47
2023-02-02T05:28:53.904Z,94.44
2023-02-02T05:31:21.952Z,94.72
2023-02-02T05:33:49.929Z,94.85
2023-02-02T05:36:18.125Z,94.93
2023-02-02T05:38:46.144Z,94.80
2023-02-02T05:41:14.111Z,94.83
2023-02-02T05:43:42.008Z,94.97
2023-02-02T05:46:10.095Z,95.13
2023-02-02T05:48:38.193Z,95.18
2023-02-02T05:51:12.002Z,94.97
2023-02-02T05:53:39.979Z,94.91
2023-02-02T05:56:07.945Z,94.84
2023-02-02T05:58:36.039Z,95.33
2023-02-02T06:01:04.247Z,95.29
2023-02-02T06:03:32.346Z,95.09
2023-02-02T06:06:00.593Z,94.90
2023-02-02T06:08:28.586Z,94.41
2023-02-02T06:10:56.490Z,94.17
2023-02-02T06:13:24.651Z,94.07
2023-02-02T06:15:52.614Z,93.90
2023-02-02T06:18:21.030Z,93.39
2023-02-02T06:20:59.423Z,93.14
2023-02-02T06:23:28.121Z,92.91
2023-02-02T06:25:56.223Z,92.54
2023-02-02T06:28:24.337Z,92.30
2023-02-02T06:30:52.374Z,92.15
2023-02-02T06:33:20.483Z,92.26
2023-02-02T06:35:48.501Z,92.48
2023-02-02T06:38:16.604Z,92.60
2023-02-02T06:40:44.573Z,92.68
2023-02-02T06:43:15.151Z,92.89
2023-02-02T06:45:43.227Z,93.16
2023-02-02T06:48:12.101Z,93.36
2023-02-02T06:50:40.120Z,93.60
2023-02-02T06:53:08.171Z,93.68
2023-02-02T06:55:36.340Z,93.78
2023-02-02T06:58:04.301Z,94.04
2023-02-02T07:00:33.268Z,94.37
2023-02-02T07:03:03.925Z,94.58
2023-02-02T07:05:32.223Z,94.72
2023-02-02T07:08:00.865Z,94.78
2023-02-02T07:11:12.826Z,94.90
2023-02-02T07:13:16.903Z,94.91
2023-02-02T07:15:45.067Z,95.32
2023-02-02T07:18:13.109Z,95.33
2023-02-02T07:20:41.500Z,95.61
2023-02-02T07:23:09.505Z,95.61
2023-02-02T07:25:37.640Z,95.83
2023-02-02T07:28:05.788Z,95.76
2023-02-02T07:30:33.900Z,95.34
2023-02-02T07:33:02.161Z,95.02
2023-02-02T07:35:30.380Z,94.93
2023-02-02T07:37:58.457Z,94.63
2023-02-02T07:40:26.503Z,94.15
2023-02-02T07:42:54.733Z,94.01
2023-02-02T07:45:27.638Z,93.38
2023-02-02T07:47:57.359Z,93.40
2023-02-02T07:50:26.123Z,93.56
2023-02-02T07:52:54.185Z,93.53
2023-02-02T07:55:23.408Z,93.48
2023-02-02T07:57:55.712Z,93.26
2023-02-02T08:00:24.957Z,92.87
2023-02-02T08:02:53.658Z,92.82
2023-02-02T08:05:22.906Z,92.97
2023-02-02T08:07:51.353Z,92.37
2023-02-02T08:10:19.652Z,92.01
2023-02-02T08:12:47.627Z,91.89
2023-02-02T08:15:15.804Z,91.79
2023-02-02T08:17:49.971Z,91.38
2023-02-02T08:20:18.281Z,91.20
2023-02-02T08:22:46.352Z,90.61
2023-02-02T08:25:14.454Z,90.53
2023-02-02T08:27:42.410Z,89.78
2023-02-02T08:30:11.382Z,88.63
2023-02-02T08:32:40.606Z,88.13
2023-02-02T08:43:33.960Z,88.36
2023-02-02T08:46:05.489Z,88.60
2023-02-02T08:48:35.389Z,89.16
2023-02-02T08:51:05.244Z,89.65
2023-02-02T08:53:33.437Z,89.96
2023-02-02T08:56:11.165Z,90.19
2023-02-02T08:58:39.536Z,90.45
2023-02-02T09:01:16.561Z,90.30
2023-02-02T09:03:45.321Z,90.45
2023-02-02T09:06:16.069Z,90.35
2023-02-02T09:08:44.651Z,90.77
2023-02-02T09:11:18.136Z,90.62
2023-02-02T09:13:48.853Z,90.26
2023-02-02T09:16:18.697Z,89.26
2023-02-02T09:18:48.057Z,88.63
2023-02-02T09:21:18.446Z,88.00
2023-02-02T09:23:48.752Z,87.44
2023-02-02T09:26:20.284Z,87.12
2023-02-02T09:29:02.564Z,86.31
2023-02-02T09:31:34.254Z,85.60
2023-02-02T09:34:08.378Z,85.42
2023-02-02T09:36:37.917Z,85.04
2023-02-02T09:39:06.765Z,85.29
2023-02-02T09:41:38.018Z,85.37
2023-02-02T09:44:33.089Z,85.11
2023-02-02T09:47:10.412Z,85.33
2023-02-02T09:50:17.000Z,85.50
2023-02-02T09:53:00.122Z,85.20
2023-02-02T09:55:35.032Z,85.24
2023-02-02T09:58:20.671Z,85.44
2023-02-02T10:01:01.976Z,85.00
2023-02-02T10:03:57.006Z,85.44
2023-02-02T10:06:40.445Z,85.65
2023-02-02T10:09:11.655Z,85.90
2023-02-02T10:11:58.110Z,86.43
2023-02-02T10:14:54.242Z,87.04
2023-02-02T10:17:44.346Z,87.62
2023-02-02T10:20:27.358Z,88.29
2023-02-02T10:22:59.967Z,88.95
2023-02-02T10:25:29.180Z,89.34
2023-02-02T10:28:07.145Z,89.78
2023-02-02T10:31:02.082Z,90.42
2023-02-02T10:33:38.389Z,90.82
2023-02-02T10:36:21.755Z,91.19
2023-02-02T10:39:27.924Z,91.38
2023-02-02T10:42:33.263Z,91.95
2023-02-02T10:45:18.340Z,92.21
2023-02-02T10:47:46.933Z,91.87
2023-02-02T10:50:22.489Z,91.38
2023-02-02T10:53:00.170Z,91.28
2023-02-02T10:55:41.430Z,91.02
2023-02-02T10:58:12.374Z,91.05
2023-02-02T11:00:40.618Z,90.64
2023-02-02T11:03:11.376Z,90.22
2023-02-02T11:05:58.376Z,90.40
2023-02-02T11:08:43.357Z,89.82
2023-02-02T11:11:11.847Z,90.08
2023-02-02T11:14:09.394Z,90.39
2023-02-02T11:17:08.091Z,90.31
2023-02-02T11:19:37.806Z,89.97
2023-02-02T11:22:06.159Z,89.46
2023-02-02T11:24:49.680Z,88.08
2023-02-02T11:27:21.626Z,87.06
2023-02-02T11:29:52.944Z,85.93
2023-02-02T11:32:32.690Z,85.37
2023-02-02T11:35:06.817Z,84.91
2023-02-02T11:37:51.596Z,83.42
2023-02-02T11:40:28.995Z,82.87
2023-02-02T11:43:00.656Z,82.28
2023-02-02T11:45:39.442Z,81.95
2023-02-02T11:48:17.025Z,81.57
2023-02-02T11:50:54.066Z,81.90
2023-02-02T11:53:36.911Z,81.19
2023-02-02T11:56:21.580Z,80.25
2023-02-02T11:58:59.622Z,79.36
2023-02-02T12:01:44.005Z,78.96
2023-02-02T12:04:18.388Z,77.69
2023-02-02T12:06:46.493Z,77.93
2023-02-02T12:09:17.992Z,77.52
2023-02-02T12:12:04.853Z,77.95
2023-02-02T12:15:03.392Z,77.30
2023-02-02T12:17:47.358Z,77.20
2023-02-02T12:20:19.543Z,76.27
2023-02-02T12:23:02.923Z,74.46
2023-02-02T12:26:02.536Z,73.75
2023-02-02T12:29:14.065Z,73.15
2023-02-02T12:31:48.047Z,72.39
2023-02-02T12:35:00.987Z,72.20
2023-02-02T12:37:49.622Z,70.71
2023-02-02T12:40:35.133Z,69.44
2023-02-02T12:43:04.363Z,70.46
2023-02-02T12:46:12.052Z,69.92
2023-02-02T12:48:47.665Z,70.29
2023-02-02T12:51:15.747Z,70.32
2023-02-02T12:54:33.434Z,70.43
2023-02-02T12:57:55.817Z,70.24
2023-02-02T13:00:30.428Z,69.76
2023-02-02T13:03:40.904Z,69.53
2023-02-02T13:06:14.770Z,69.41
2023-02-02T13:08:52.125Z,68.72
2023-02-02T13:11:31.449Z,67.48
2023-02-02T13:14:28.868Z,66.84
2023-02-02T13:17:19.611Z,67.03
2023-02-02T13:19:54.693Z,67.09
2023-02-02T13:22:29.147Z,65.10
2023-02-02T13:25:01.373Z,64.73
2023-02-02T13:27:31.348Z,63.48
2023-02-02T13:30:32.039Z,63.61
2023-02-02T13:33:06.014Z,63.74
2023-02-02T13:36:10.179Z,64.23
2023-02-02T13:38:42.289Z,64.19
2023-02-02T13:41:13.595Z,64.32
2023-02-02T13:43:47.646Z,64.40
2023-02-02T13:46:39.408Z,63.99
2023-02-02T13:49:19.755Z,64.64
2023-02-02T13:52:02.762Z,65.46
2023-02-02T13:54:58.249Z,65.89
2023-02-02T13:57:41.412Z,66.30
2023-02-02T14:00:18.860Z,66.95
2023-02-02T14:02:56.224Z,67.48
2023-02-02T14:05:30.751Z,68.04
2023-02-02T14:08:25.643Z,68.55
2023-02-02T14:10:53.521Z,68.95
2023-02-02T14:13:45.040Z,69.01
2023-02-02T14:16:42.428Z,69.18
2023-02-02T14:19:33.180Z,69.59
2023-02-02T14:22:10.269Z,70.08
2023-02-02T14:24:43.474Z,70.16
2023-02-02T14:27:11.448Z,70.54
2023-02-02T14:29:46.981Z,70.82
2023-02-02T14:32:24.742Z,71.03
2023-02-02T14:34:55.363Z,70.97
2023-02-02T14:37:26.630Z,71.00
2023-02-02T14:40:07.143Z,71.08
2023-02-02T14:43:19.453Z,71.29
2023-02-02T14:45:50.059Z,71.31
2023-02-02T14:48:24.044Z,71.24
2023-02-02T14:50:55.930Z,71.53
2023-02-02T14:53:37.744Z,71.76
2023-02-02T14:56:10.069Z,71.93
2023-02-02T14:58:47.996Z,72.13
2023-02-02T15:01:25.069Z,72.35
2023-02-02T15:03:56.204Z,72.28
2023-02-02T15:06:43.203Z,72.01
2023-02-02T15:09:20.053Z,72.41
2023-02-02T15:12:02.995Z,72.68
2023-02-02T15:14:55.302Z,72.86
2023-02-02T15:17:39.891Z,72.99
2023-02-02T15:20:22.834Z,73.14
2023-02-02T15:23:04.881Z,73.28
2023-02-02T15:25:40.871Z,73.35
2023-02-02T15:28:36.538Z,73.43
2023-02-02T15:31:29.487Z,73.69
2023-02-02T15:34:02.513Z,73.70
2023-02-02T15:36:37.753Z,73.92
2023-02-02T15:39:23.180Z,73.75
2023-02-02T15:42:13.034Z,73.87
2023-02-02T15:44:42.123Z,73.74
2023-02-02T15:47:17.391Z,73.82
2023-02-02T15:49:46.350Z,73.81
2023-02-02T15:52:18.919Z,73.49
2023-02-02T15:54:52.105Z,73.70
2023-02-02T15:57:30.662Z,73.57
2023-02-02T16:00:00.921Z,73.25
2023-02-02T16:02:45.645Z,72.96
2023-02-02T16:05:49.217Z,72.62
2023-02-02T16:08:27.621Z,72.60
2023-02-02T16:11:05.433Z,72.38
2023-02-02T16:13:33.982Z,72.38
2023-02-02T16:16:20.594Z,72.46
2023-02-02T16:19:03.189Z,72.17
2023-02-02T16:21:33.532Z,72.32
2023-02-02T16:24:04.712Z,72.06
2023-02-02T16:26:35.020Z,72.09
2023-02-02T16:29:03.630Z,72.15
2023-02-02T16:31:32.412Z,71.73
2023-02-02T16:34:02.523Z,71.67
2023-02-02T16:36:30.731Z,71.47
2023-02-02T16:39:01.170Z,70.81
2023-02-02T16:41:34.593Z,71.18
2023-02-02T16:44:43.630Z,71.73
2023-02-02T16:47:26.623Z,72.47
2023-02-02T16:50:19.745Z,73.01
2023-02-02T16:52:58.615Z,73.48
2023-02-02T16:55:43.670Z,73.88
2023-02-02T16:58:24.265Z,74.09
2023-02-02T17:01:15.993Z,74.41
2023-02-02T17:03:54.710Z,74.83
2023-02-02T17:06:31.259Z,75.14
2023-02-02T17:09:28.232Z,75.41
2023-02-02T17:12:09.381Z,75.54
2023-02-02T17:14:52.136Z,75.67
2023-02-02T17:17:20.949Z,75.87
2023-02-02T17:19:49.234Z,75.85
2023-02-02T17:22:20.605Z,75.75
2023-02-02T17:24:51.540Z,75.93
2023-02-02T17:27:29.206Z,75.88
2023-02-02T17:30:00.022Z,75.60
2023-02-02T17:32:28.093Z,75.58
2023-02-02T17:34:56.043Z,75.36
2023-02-02T17:37:24.199Z,75.33
2023-02-02T17:39:52.344Z,75.36
2023-02-02T17:42:26.950Z,75.49
2023-02-02T17:44:54.962Z,75.77
2023-02-02T17:47:22.949Z,75.64
2023-02-02T17:49:50.993Z,75.93
2023-02-02T17:52:19.765Z,76.10
2023-02-02T17:54:47.759Z,76.10
2023-02-02T17:57:15.779Z,76.08
2023-02-02T17:59:43.787Z,76.18
2023-02-02T18:02:15.308Z,76.25
2023-02-02T18:04:45.551Z,76.30
2023-02-02T18:07:13.864Z,76.27
2023-02-02T18:09:41.835Z,76.27
2023-02-02T18:12:09.845Z,76.26
2023-02-02T18:14:38.294Z,75.90
2023-02-02T18:17:08.371Z,75.33
2023-02-02T18:19:36.592Z,75.29
2023-02-02T18:22:06.600Z,75.36
2023-02-02T18:24:34.801Z,75.14
2023-02-02T18:27:02.983Z,75.29
2023-02-02T18:29:31.065Z,75.06
2023-02-02T18:31:59.609Z,75.05
2023-02-02T18:34:35.564Z,74.95
2023-02-02T18:37:04.068Z,75.23
2023-02-02T18:39:32.507Z,75.52
2023-02-02T18:42:00.762Z,75.50
2023-02-02T18:44:29.541Z,75.53
2023-02-02T18:46:57.510Z,75.61
2023-02-02T18:49:25.452Z,75.61
2023-02-02T18:51:53.348Z,75.75
2023-02-02T18:54:22.424Z,75.88
2023-02-02T18:56:50.406Z,75.99
2023-02-02T18:59:18.501Z,76.04
2023-02-02T19:01:48.427Z,76.23
2023-02-02T19:04:16.550Z,76.40
2023-02-02T19:07:02.963Z,76.47
2023-02-02T19:09:30.944Z,76.62
2023-02-02T19:11:59.357Z,77.02
2023-02-02T19:14:34.387Z,77.33
2023-02-02T19:17:24.923Z,77.73
2023-02-02T19:19:53.080Z,78.27
2023-02-02T19:22:26.953Z,78.66
2023-02-02T19:24:54.944Z,78.91
2023-02-02T19:27:24.750Z,79.45
2023-02-02T19:29:59.935Z,80.06
2023-02-02T19:32:32.307Z,80.37
2023-02-02T19:35:05.572Z,80.71
2023-02-02T19:37:38.965Z,81.15
2023-02-02T19:40:07.159Z,81.30
2023-02-02T19:42:40.571Z,81.87
2023-02-02T19:45:21.345Z,82.26
2023-02-02T19:47:51.249Z,83.48
2023-02-02T19:50:21.946Z,83.72
2023-02-02T19:52:51.304Z,84.18
2023-02-02T19:55:28.457Z,85.00
2023-02-02T19:58:09.732Z,85.48
2023-02-02T20:00:39.013Z,85.92
2023-02-02T20:03:22.773Z,86.58
2023-02-02T20:05:52.687Z,86.80
2023-02-02T20:08:38.630Z,87.25
2023-02-02T20:11:37.193Z,88.46
2023-02-02T20:14:29.463Z,88.24
2023-02-02T20:17:06.696Z,88.12
2023-02-02T20:19:40.198Z,87.88
2023-02-02T20:22:29.218Z,87.92
2023-02-02T20:24:57.958Z,88.24
2023-02-02T20:27:28.693Z,88.36
2023-02-02T20:30:07.859Z,88.66
2023-02-02T20:32:41.076Z,89.07
2023-02-02T20:35:39.980Z,89.50
2023-02-02T20:38:29.662Z,90.92
2023-02-02T20:40:58.192Z,91.40
2023-02-02T20:43:26.137Z,91.80
2023-02-02T20:45:54.200Z,92.05
2023-02-02T20:48:22.701Z,92.09
2023-02-02T20:50:51.154Z,92.50
2023-02-02T20:53:19.461Z,92.76
2023-02-02T20:55:47.698Z,92.90
2023-02-02T20:58:15.731Z,93.44
2023-02-02T21:00:43.779Z,93.73
2023-02-02T21:03:13.291Z,94.04
2023-02-02T21:05:41.311Z,94.15
2023-02-02T21:08:10.775Z,94.35
2023-02-02T21:10:39.007Z,94.43
2023-02-02T21:13:07.173Z,94.85
2023-02-02T21:15:36.553Z,95.05
2023-02-02T21:18:04.652Z,95.37
2023-02-02T21:20:33.305Z,95.51
2023-02-02T21:23:02.645Z,95.51
2023-02-02T21:25:30.898Z,95.38
2023-02-02T21:28:00.399Z,95.95
2023-02-02T21:30:29.155Z,96.33
2023-02-02T21:32:57.357Z,96.80
2023-02-02T21:35:26.808Z,97.00
2023-02-02T21:37:57.786Z,97.36
2023-02-02T21:40:29.801Z,97.44
2023-02-02T21:43:09.588Z,97.47
2023-02-02T21:45:38.705Z,97.77
2023-02-02T21:48:22.072Z,98.17
2023-02-02T21:50:50.069Z,99.45
2023-02-02T21:53:27.199Z,100.00
2023-02-02T21:55:59.551Z,99.99
2023-02-02T21:58:35.114Z,99.95
2023-02-02T22:01:15.519Z,99.86
2023-02-02T22:03:46.963Z,99.68
2023-02-02T22:06:21.116Z,99.59
2023-02-02T22:08:50.863Z,99.45
2023-02-02T22:11:29.549Z,99.50
2023-02-02T22:14:11.743Z,99.24
2023-02-02T22:16:45.541Z,99.29
2023-02-02T22:19:25.952Z,99.23
2023-02-02T22:22:03.852Z,99.41
2023-02-02T22:24:31.941Z,99.56
2023-02-02T22:27:00.167Z,99.80
2023-02-02T22:29:34.403Z,99.71
2023-02-02T22:32:02.617Z,99.82
2023-02-02T22:34:31.429Z,99.95
2023-02-02T22:36:59.483Z,100.00
2023-02-02T22:39:27.645Z,100.00
2023-02-02T22:41:55.711Z,100.00
2023-02-02T22:44:23.701Z,100.00
2023-02-02T22:46:52.013Z,100.00
2023-02-02T22:49:20.058Z,100.00
2023-02-02T22:51:48.090Z,100.00
2023-02-02T22:54:16.206Z,100.00
2023-02-02T22:56:44.239Z,100.00
2023-02-02T22:59:12.479Z,100.00
2023-02-02T23:01:40.522Z,100.00
2023-02-02T23:04:08.658Z,100.00
2023-02-02T23:06:36.745Z,100.00
2023-02-02T23:09:04.837Z,100.00
2023-02-02T23:11:34.669Z,100.00
2023-02-02T23:14:03.092Z,100.00
2023-02-02T23:16:31.253Z,100.00
2023-02-02T23:18:59.508Z,99.94
2023-02-02T23:21:27.584Z,99.90
2023-02-02T23:23:56.101Z,99.64
2023-02-02T23:26:25.777Z,99.42
2023-02-02T23:28:53.833Z,99.10
2023-02-02T23:31:22.036Z,98.85
2023-02-02T23:33:50.171Z,98.80
2023-02-02T23:36:18.322Z,98.60
2023-02-02T23:38:46.366Z,98.56
2023-02-02T23:41:15.696Z,98.48
2023-02-02T23:43:43.749Z,98.16
2023-02-02T23:46:12.471Z,97.86
2023-02-02T23:48:40.586Z,97.60
2023-02-02T23:51:09.397Z,97.49
2023-02-02T23:53:38.628Z,97.25
2023-02-02T23:56:07.218Z,97.07
2023-02-02T23:58:35.719Z,96.95
